Time;durP1;ratioP1;P1;durP2;ratioP2;P2;SDS_P1;SDS_P2;PMS_P1;PMS_P2;Temp;Humidity;BMP_temperature;BMP_pressure;BME280_temperature;BME280_humidity;BME280_pressure;Samples;Min_cycle;Max_cycle;Signal;HPM_P1;HPM_P2
2023/11/15 00:00:38;;;;;;;9.68;8.35;;;;;;;;;;4971112;28;20046;-78
2023/11/15 00:03:06;;;;;;;15.40;10.18;;;;;;;;;;4971986;28;20046;-79
2023/11/15 00:05:32;;;;;;;12.85;9.60;;;;;;;;;;4972499;28;20125;-79
2023/11/15 00:07:59;;;;;;;15.77;9.73;;;;;;;;;;4971992;28;20431;-78
2023/11/15 00:10:26;;;;;;;10.90;9.75;;;;;;;;;;4955094;28;20047;-78
2023/11/15 00:12:53;;;;;;;14.18;10.25;;;;;;;;;;4972176;28;20081;-79
2023/11/15 00:15:19;;;;;;;11.18;9.20;;;;;;;;;;4972033;28;20054;-78
2023/11/15 00:17:46;;;;;;;9.88;8.63;;;;;;;;;;4972339;28;20117;-78
2023/11/15 00:20:13;;;;;;;12.32;8.82;;;;;;;;;;4971899;28;20054;-78
2023/11/15 00:22:39;;;;;;;10.20;8.57;;;;;;;;;;4972984;28;20046;-78
2023/11/15 00:25:05;;;;;;;14.43;9.80;;;;;;;;;;4972189;28;20521;-78
2023/11/15 00:27:31;;;;;;;12.45;9.48;;;;;;;;;;4955725;28;20043;-79
2023/11/15 00:29:57;;;;;;;14.95;9.98;;;;;;;;;;4954857;28;20409;-79
2023/11/15 00:32:23;;;;;;;11.65;10.43;;;;;;;;;;4972242;28;20043;-77
2023/11/15 00:34:49;;;;;;;13.52;10.07;;;;;;;;;;4954770;28;20050;-78
2023/11/15 00:37:15;;;;;;;11.20;9.45;;;;;;;;;;4971927;28;20055;-79
2023/11/15 00:39:41;;;;;;;14.63;10.38;;;;;;;;;;4970900;28;20054;-79
2023/11/15 00:42:08;;;;;;;14.15;10.68;;;;;;;;;;4971573;28;20509;-78
2023/11/15 00:44:34;;;;;;;14.73;11.15;;;;;;;;;;4971930;28;20035;-80
2023/11/15 00:47:03;;;;;;;11.35;9.43;;;;;;;;;;4954754;28;20137;-79
2023/11/15 00:49:29;;;;;;;12.27;9.50;;;;;;;;;;4970755;28;20039;-79
2023/11/15 00:51:56;;;;;;;18.42;10.15;;;;;;;;;;4938861;28;20073;-78
2023/11/15 00:54:23;;;;;;;11.13;9.70;;;;;;;;;;4971869;28;20074;-81
2023/11/15 00:56:50;;;;;;;10.52;8.77;;;;;;;;;;4954908;28;20433;-79
2023/11/15 00:59:19;;;;;;;12.43;10.18;;;;;;;;;;4971532;28;20049;-79
2023/11/15 01:01:45;;;;;;;13.10;11.25;;;;;;;;;;4972095;28;20133;-79
2023/11/15 01:04:11;;;;;;;20.88;11.15;;;;;;;;;;4971662;28;20054;-80
2023/11/15 01:06:37;;;;;;;14.13;10.38;;;;;;;;;;4971969;28;20141;-78
2023/11/15 01:09:07;;;;;;;17.73;10.48;;;;;;;;;;4938267;28;20093;-80
2023/11/15 01:11:34;;;;;;;14.02;10.65;;;;;;;;;;4954589;28;20053;-79
2023/11/15 01:14:00;;;;;;;19.25;10.95;;;;;;;;;;4971428;28;20046;-79
2023/11/15 01:16:26;;;;;;;15.02;12.10;;;;;;;;;;4971757;28;20536;-78
2023/11/15 01:18:53;;;;;;;14.27;11.20;;;;;;;;;;4971340;28;20058;-77
2023/11/15 01:21:19;;;;;;;11.35;9.20;;;;;;;;;;4971361;28;20077;-78
2023/11/15 01:23:45;;;;;;;16.70;12.40;;;;;;;;;;4937943;28;20075;-79
2023/11/15 01:26:11;;;;;;;19.88;13.00;;;;;;;;;;4954412;28;20089;-80
2023/11/15 01:28:37;;;;;;;14.32;10.52;;;;;;;;;;4971592;28;20081;-79
2023/11/15 01:31:03;;;;;;;12.95;10.98;;;;;;;;;;4938604;28;20550;-80
2023/11/15 01:33:29;;;;;;;18.05;12.73;;;;;;;;;;4973796;28;20051;-78
2023/11/15 01:35:55;;;;;;;18.80;11.20;;;;;;;;;;4963289;28;20058;-80
2023/11/15 01:38:22;;;;;;;14.15;11.57;;;;;;;;;;4974994;28;20042;-80
2023/11/15 01:40:48;;;;;;;13.95;11.55;;;;;;;;;;4973524;28;20066;-79
2023/11/15 01:43:17;;;;;;;12.68;10.50;;;;;;;;;;4984715;28;20035;-80
2023/11/15 01:45:46;;;;;;;14.95;10.82;;;;;;;;;;4986838;28;20053;-79
2023/11/15 01:48:14;;;;;;;17.90;12.55;;;;;;;;;;4986191;28;20038;-78
2023/11/15 01:50:40;;;;;;;16.48;11.20;;;;;;;;;;4978366;28;20502;-78
2023/11/15 01:53:07;;;;;;;13.88;10.70;;;;;;;;;;4972669;28;20031;-79
2023/11/15 01:55:33;;;;;;;14.20;10.60;;;;;;;;;;4975026;28;20051;-78
2023/11/15 01:57:59;;;;;;;17.25;11.85;;;;;;;;;;4926194;28;20407;-76
2023/11/15 02:00:25;;;;;;;14.38;11.02;;;;;;;;;;4957546;28;20051;-78
2023/11/15 02:02:51;;;;;;;15.65;11.32;;;;;;;;;;4957528;28;20035;-79
2023/11/15 02:05:17;;;;;;;12.48;10.20;;;;;;;;;;4974418;28;20047;-77
2023/11/15 02:07:43;;;;;;;11.82;10.38;;;;;;;;;;4974519;28;20058;-79
2023/11/15 02:10:11;;;;;;;15.38;10.45;;;;;;;;;;4974453;28;20042;-77
2023/11/15 02:12:38;;;;;;;12.32;10.45;;;;;;;;;;4957561;28;20046;-77
2023/11/15 02:15:05;;;;;;;13.32;10.77;;;;;;;;;;4974835;28;20510;-78
2023/11/15 02:17:37;;;;;;;11.45;10.32;;;;;;;;;;4980892;28;20465;-77
2023/11/15 02:20:08;;;;;;;12.23;9.68;;;;;;;;;;4970622;28;20042;-78
2023/11/15 02:22:34;;;;;;;11.80;10.60;;;;;;;;;;4978211;28;20059;-79
2023/11/15 02:25:00;;;;;;;12.57;10.70;;;;;;;;;;4963494;28;20043;-78
2023/11/15 02:27:26;;;;;;;13.88;11.00;;;;;;;;;;4944676;29;20039;-78
2023/11/15 02:29:52;;;;;;;11.75;10.57;;;;;;;;;;4939985;29;20537;-79
2023/11/15 02:32:18;;;;;;;14.95;10.85;;;;;;;;;;4937958;29;20050;-79
2023/11/15 02:34:44;;;;;;;13.68;11.45;;;;;;;;;;4954874;29;20461;-79
2023/11/15 02:37:10;;;;;;;17.67;12.07;;;;;;;;;;4939122;29;20182;-78
2023/11/15 02:39:36;;;;;;;14.63;11.65;;;;;;;;;;4953484;29;20138;-78
2023/11/15 02:42:02;;;;;;;12.52;11.05;;;;;;;;;;4955123;29;20058;-78
2023/11/15 02:44:29;;;;;;;11.80;10.60;;;;;;;;;;4937721;29;20125;-80
2023/11/15 02:46:55;;;;;;;13.05;10.55;;;;;;;;;;4937922;29;20066;-78
2023/11/15 02:49:22;;;;;;;19.50;12.30;;;;;;;;;;4954512;29;20491;-79
2023/11/15 02:51:49;;;;;;;12.35;10.10;;;;;;;;;;4954915;29;20039;-79
2023/11/15 02:54:15;;;;;;;11.68;8.82;;;;;;;;;;4937370;29;20066;-78
2023/11/15 02:56:41;;;;;;;20.45;12.25;;;;;;;;;;4937138;29;20114;-79
2023/11/15 02:59:07;;;;;;;16.05;12.02;;;;;;;;;;4937208;29;20390;-80
2023/11/15 03:01:33;;;;;;;14.57;9.80;;;;;;;;;;4939009;29;20043;-79
2023/11/15 03:04:00;;;;;;;16.27;12.00;;;;;;;;;;4956220;29;20121;-78
2023/11/15 03:06:26;;;;;;;13.25;11.27;;;;;;;;;;4952577;28;20043;-80
2023/11/15 03:08:52;;;;;;;14.63;10.35;;;;;;;;;;4937136;29;20051;-79
2023/11/15 03:11:18;;;;;;;19.83;11.50;;;;;;;;;;4939918;28;20077;-79
2023/11/15 03:13:44;;;;;;;18.50;13.95;;;;;;;;;;4957765;28;20049;-80
2023/11/15 03:16:11;;;;;;;23.70;13.05;;;;;;;;;;4975026;28;20425;-81
2023/11/15 03:18:37;;;;;;;21.38;14.23;;;;;;;;;;4957830;28;20049;-80
2023/11/15 03:21:04;;;;;;;21.60;14.32;;;;;;;;;;4974345;28;20049;-80
2023/11/15 03:23:30;;;;;;;23.25;14.30;;;;;;;;;;4972024;28;20094;-81
2023/11/15 03:25:56;;;;;;;24.55;16.27;;;;;;;;;;4956503;28;20046;-79
2023/11/15 03:28:22;;;;;;;25.40;15.00;;;;;;;;;;4956128;28;20045;-77
2023/11/15 03:30:48;;;;;;;22.70;15.90;;;;;;;;;;4938389;28;20039;-79
2023/11/15 03:33:14;;;;;;;24.63;15.68;;;;;;;;;;4973639;28;20097;-80
2023/11/15 03:35:40;;;;;;;22.92;15.45;;;;;;;;;;4973983;28;20113;-79
2023/11/15 03:38:06;;;;;;;25.92;16.70;;;;;;;;;;4973999;28;20058;-80
2023/11/15 03:40:32;;;;;;;26.17;15.55;;;;;;;;;;4938396;28;20067;-79
2023/11/15 03:42:58;;;;;;;23.67;15.93;;;;;;;;;;4939942;28;20143;-79
2023/11/15 03:45:24;;;;;;;28.48;16.40;;;;;;;;;;4972790;28;20078;-79
2023/11/15 03:47:50;;;;;;;29.38;16.25;;;;;;;;;;4956015;28;20070;-79
2023/11/15 03:50:18;;;;;;;33.08;18.08;;;;;;;;;;4972632;28;20047;-78
2023/11/15 03:52:45;;;;;;;28.60;15.55;;;;;;;;;;4973005;28;20069;-80
2023/11/15 03:55:12;;;;;;;35.95;18.58;;;;;;;;;;4971288;28;20098;-79
2023/11/15 03:57:38;;;;;;;33.70;17.25;;;;;;;;;;4972922;28;20109;-78
2023/11/15 04:00:06;;;;;;;33.75;17.90;;;;;;;;;;4972076;28;20050;-79
2023/11/15 04:02:39;;;;;;;28.17;16.85;;;;;;;;;;4974463;28;20110;-79
2023/11/15 04:05:05;;;;;;;32.20;16.92;;;;;;;;;;4972447;28;20116;-79
2023/11/15 04:07:31;;;;;;;25.27;16.30;;;;;;;;;;4973180;28;20062;-79
2023/11/15 04:09:57;;;;;;;36.83;18.52;;;;;;;;;;4971978;28;20057;-78
2023/11/15 04:12:23;;;;;;;26.73;15.40;;;;;;;;;;4939653;28;20062;-80
2023/11/15 04:14:49;;;;;;;30.05;16.27;;;;;;;;;;4978457;28;20430;-80
2023/11/15 04:17:17;;;;;;;29.75;15.02;;;;;;;;;;4955075;28;20051;-78
2023/11/15 04:19:43;;;;;;;28.98;15.75;;;;;;;;;;4971109;28;20081;-80
2023/11/15 04:22:10;;;;;;;31.80;18.90;;;;;;;;;;4955715;28;20049;-78
2023/11/15 04:24:39;;;;;;;27.88;16.38;;;;;;;;;;4972184;28;20038;-78
2023/11/15 04:27:06;;;;;;;22.95;15.10;;;;;;;;;;4972790;28;20465;-79
2023/11/15 04:29:32;;;;;;;25.10;15.13;;;;;;;;;;4953740;28;20049;-77
2023/11/15 04:31:58;;;;;;;20.33;13.77;;;;;;;;;;4971688;28;20042;-78
2023/11/15 04:34:24;;;;;;;19.73;13.82;;;;;;;;;;4971548;28;20050;-79
2023/11/15 04:36:50;;;;;;;22.48;14.50;;;;;;;;;;4971766;28;20572;-80
2023/11/15 04:39:17;;;;;;;22.58;15.90;;;;;;;;;;4971553;28;20061;-77
2023/11/15 04:41:42;;;;;;;21.38;14.23;;;;;;;;;;4954236;28;20074;-79
2023/11/15 04:44:09;;;;;;;31.88;15.60;;;;;;;;;;4971748;28;20422;-79
2023/11/15 04:46:39;;;;;;;23.48;16.02;;;;;;;;;;4971206;28;20043;-80
2023/11/15 04:49:07;;;;;;;20.52;11.05;;;;;;;;;;4972088;28;20532;-79
2023/11/15 04:51:33;;;;;;;29.02;15.70;;;;;;;;;;4972776;28;20558;-81
2023/11/15 04:53:59;;;;;;;21.38;14.65;;;;;;;;;;4972602;28;20121;-80
2023/11/15 04:56:25;;;;;;;29.42;15.43;;;;;;;;;;4955063;28;20051;-80
2023/11/15 04:58:52;;;;;;;27.10;15.98;;;;;;;;;;4972432;28;20042;-79
2023/11/15 05:01:18;;;;;;;38.15;17.60;;;;;;;;;;4970348;28;20188;-79
2023/11/15 05:03:44;;;;;;;30.23;16.27;;;;;;;;;;4972189;28;20042;-79
2023/11/15 05:06:11;;;;;;;33.08;16.30;;;;;;;;;;4936314;28;20462;-80
2023/11/15 05:08:37;;;;;;;33.53;18.40;;;;;;;;;;4936539;29;20046;-77
2023/11/15 05:11:04;;;;;;;36.92;18.80;;;;;;;;;;4955452;29;20541;-79
2023/11/15 05:13:31;;;;;;;33.20;15.77;;;;;;;;;;4974333;28;20067;-77
2023/11/15 05:15:57;;;;;;;37.45;18.00;;;;;;;;;;4969170;29;20063;-78
2023/11/15 05:18:23;;;;;;;35.00;17.50;;;;;;;;;;4940984;29;20039;-80
2023/11/15 05:20:49;;;;;;;39.47;19.00;;;;;;;;;;4923778;29;20047;-81
2023/11/15 05:23:15;;;;;;;24.30;14.40;;;;;;;;;;4923637;28;20552;-79
2023/11/15 05:25:41;;;;;;;36.38;17.73;;;;;;;;;;4938578;28;20035;-79
2023/11/15 05:28:08;;;;;;;32.15;16.13;;;;;;;;;;4971730;28;20109;-78
2023/11/15 05:30:34;;;;;;;32.00;17.48;;;;;;;;;;4925843;28;20038;-79
2023/11/15 05:33:01;;;;;;;34.13;17.05;;;;;;;;;;4960269;28;20549;-78
2023/11/15 05:35:27;;;;;;;35.58;16.75;;;;;;;;;;4958082;28;20109;-78
2023/11/15 05:37:53;;;;;;;26.13;15.88;;;;;;;;;;4975613;28;20133;-80
2023/11/15 05:40:19;;;;;;;30.00;15.90;;;;;;;;;;4973886;28;20039;-79
2023/11/15 05:42:45;;;;;;;35.78;17.60;;;;;;;;;;4958011;28;20046;-80
2023/11/15 05:45:11;;;;;;;28.35;16.92;;;;;;;;;;4941977;28;20042;-78
2023/11/15 05:47:38;;;;;;;32.72;17.27;;;;;;;;;;4941919;28;20093;-77
2023/11/15 05:50:09;;;;;;;32.13;18.77;;;;;;;;;;4957795;28;20509;-78
2023/11/15 05:52:38;;;;;;;29.67;17.13;;;;;;;;;;4957654;28;20058;-76
2023/11/15 05:55:05;;;;;;;31.23;17.02;;;;;;;;;;4953234;28;20087;-77
2023/11/15 05:57:32;;;;;;;32.70;15.95;;;;;;;;;;4969532;28;20050;-77
2023/11/15 05:59:59;;;;;;;27.25;15.90;;;;;;;;;;4973107;28;20098;-74
2023/11/15 06:02:25;;;;;;;52.53;22.30;;;;;;;;;;4974081;28;20042;-73
2023/11/15 06:04:52;;;;;;;50.33;21.50;;;;;;;;;;4973631;28;20403;-73
2023/11/15 06:07:18;;;;;;;54.45;23.65;;;;;;;;;;4965062;28;20558;-72
2023/11/15 06:09:47;;;;;;;48.17;19.17;;;;;;;;;;4961333;28;20042;-72
2023/11/15 06:12:13;;;;;;;56.05;23.60;;;;;;;;;;4968565;28;20410;-72
2023/11/15 06:14:39;;;;;;;63.00;23.00;;;;;;;;;;4968199;28;20055;-73
2023/11/15 06:17:07;;;;;;;51.03;22.20;;;;;;;;;;4965800;28;20466;-71
2023/11/15 06:19:33;;;;;;;56.42;22.17;;;;;;;;;;4964312;28;20034;-73
2023/11/15 06:22:00;;;;;;;55.45;22.98;;;;;;;;;;4974903;28;20157;-75
2023/11/15 06:24:26;;;;;;;59.70;21.52;;;;;;;;;;4975272;28;20165;-72
2023/11/15 06:26:52;;;;;;;56.03;22.33;;;;;;;;;;4973566;28;20141;-72
2023/11/15 06:29:22;;;;;;;77.30;25.73;;;;;;;;;;4955721;28;20310;-73
2023/11/15 06:31:48;;;;;;;71.30;27.27;;;;;;;;;;4973240;28;20078;-74
2023/11/15 06:34:14;;;;;;;65.18;24.17;;;;;;;;;;4973754;28;20133;-74
2023/11/15 06:36:43;;;;;;;73.22;24.83;;;;;;;;;;4966171;28;20054;-74
2023/11/15 06:39:12;;;;;;;56.13;22.83;;;;;;;;;;4956086;28;20035;-73
2023/11/15 06:41:38;;;;;;;71.15;27.73;;;;;;;;;;4954356;28;20055;-74
2023/11/15 06:44:08;;;;;;;72.88;27.77;;;;;;;;;;4955833;29;20157;-71
2023/11/15 06:46:38;;;;;;;68.55;26.35;;;;;;;;;;4953906;29;20050;-73
2023/11/15 06:49:10;;;;;;;65.63;25.35;;;;;;;;;;4953871;29;20062;-72
2023/11/15 06:51:37;;;;;;;62.90;22.00;;;;;;;;;;4952117;29;20042;-72
2023/11/15 06:54:03;;;;;;;35.65;16.63;;;;;;;;;;4953508;29;20066;-72
2023/11/15 06:56:29;;;;;;;43.92;21.00;;;;;;;;;;4953594;29;20095;-72
2023/11/15 06:58:56;;;;;;;38.92;19.48;;;;;;;;;;4964716;28;20169;-73
2023/11/15 07:01:23;;;;;;;42.42;20.08;;;;;;;;;;4972414;28;20039;-73
2023/11/15 07:03:50;;;;;;;42.72;21.77;;;;;;;;;;4971374;28;20055;-73
2023/11/15 07:06:16;;;;;;;38.42;20.05;;;;;;;;;;4963893;28;20031;-72
2023/11/15 07:08:42;;;;;;;31.25;17.95;;;;;;;;;;4963634;28;20047;-73
2023/11/15 07:11:08;;;;;;;40.80;19.85;;;;;;;;;;4959901;28;20043;-73
2023/11/15 07:13:34;;;;;;;33.65;18.08;;;;;;;;;;4947484;28;20738;-73
2023/11/15 07:16:02;;;;;;;28.10;18.17;;;;;;;;;;4967668;28;20457;-75
2023/11/15 07:18:29;;;;;;;37.15;19.38;;;;;;;;;;4966432;28;20101;-78
2023/11/15 07:20:55;;;;;;;40.50;18.02;;;;;;;;;;4963215;28;20050;-77
2023/11/15 07:23:21;;;;;;;30.55;17.92;;;;;;;;;;4962867;28;20039;-76
2023/11/15 07:25:47;;;;;;;34.42;19.58;;;;;;;;;;4961521;28;20047;-76
2023/11/15 07:28:15;;;;;;;37.15;19.95;;;;;;;;;;4963617;28;20039;-71
2023/11/15 07:30:43;;;;;;;46.53;19.75;;;;;;;;;;4962228;28;20038;-72
2023/11/15 07:33:09;;;;;;;40.80;22.70;;;;;;;;;;4970013;28;20085;-72
2023/11/15 07:35:36;;;;;;;42.67;21.48;;;;;;;;;;4969025;28;20078;-75
2023/11/15 07:38:07;;;;;;;39.83;21.52;;;;;;;;;;4952044;28;20113;-74
2023/11/15 07:40:37;;;;;;;36.90;21.73;;;;;;;;;;4952563;28;20121;-75
2023/11/15 07:43:05;;;;;;;40.70;22.63;;;;;;;;;;4966192;28;20071;-74
2023/11/15 07:45:35;;;;;;;40.13;23.40;;;;;;;;;;4963551;28;20035;-75
2023/11/15 07:48:01;;;;;;;45.30;24.33;;;;;;;;;;4965220;28;20041;-75
2023/11/15 07:50:28;;;;;;;48.05;26.48;;;;;;;;;;4951526;28;20093;-74
2023/11/15 07:52:54;;;;;;;42.42;24.33;;;;;;;;;;4955208;28;20105;-75
2023/11/15 07:55:20;;;;;;;44.90;24.27;;;;;;;;;;4967844;28;20042;-74
2023/11/15 07:57:46;;;;;;;42.75;23.25;;;;;;;;;;4949875;28;20195;-74
2023/11/15 08:00:13;;;;;;;45.90;23.45;;;;;;;;;;4960726;28;20054;-74
2023/11/15 08:02:42;;;;;;;45.03;23.60;;;;;;;;;;4961152;28;20045;-72
2023/11/15 08:05:08;;;;;;;46.42;23.77;;;;;;;;;;4964797;28;20057;-73
2023/11/15 08:07:36;;;;;;;50.28;25.13;;;;;;;;;;4961762;28;20034;-72
2023/11/15 08:10:03;;;;;;;50.08;25.40;;;;;;;;;;4951234;28;20481;-73
2023/11/15 08:12:35;;;;;;;51.72;21.73;;;;;;;;;;4962931;28;20073;-73
2023/11/15 08:15:05;;;;;;;46.75;21.88;;;;;;;;;;4968707;28;20146;-71
2023/11/15 08:17:31;;;;;;;46.10;21.67;;;;;;;;;;4969628;28;20046;-73
2023/11/15 08:19:57;;;;;;;53.50;22.58;;;;;;;;;;4953622;28;20035;-73
2023/11/15 08:22:24;;;;;;;52.88;23.02;;;;;;;;;;4967898;28;20121;-73
2023/11/15 08:24:50;;;;;;;58.30;20.02;;;;;;;;;;4970499;28;20098;-73
2023/11/15 08:27:16;;;;;;;58.30;22.95;;;;;;;;;;4971141;28;20434;-74
2023/11/15 08:29:42;;;;;;;64.03;24.65;;;;;;;;;;4969689;28;20425;-75
2023/11/15 08:32:12;;;;;;;50.17;22.70;;;;;;;;;;4970496;28;20579;-75
2023/11/15 08:34:38;;;;;;;50.60;22.95;;;;;;;;;;4965535;28;20046;-75
2023/11/15 08:37:05;;;;;;;63.65;25.10;;;;;;;;;;4961311;28;20055;-74
2023/11/15 08:39:33;;;;;;;47.53;23.08;;;;;;;;;;4946507;28;20042;-75
2023/11/15 08:41:59;;;;;;;66.03;26.00;;;;;;;;;;4967964;28;20046;-74
2023/11/15 08:44:26;;;;;;;45.20;20.05;;;;;;;;;;4964809;28;20088;-73
2023/11/15 08:46:52;;;;;;;53.08;23.10;;;;;;;;;;4968064;28;20046;-76
2023/11/15 08:49:18;;;;;;;57.00;22.60;;;;;;;;;;4969518;28;20057;-74
2023/11/15 08:51:45;;;;;;;64.68;25.77;;;;;;;;;;4967530;28;20045;-74
2023/11/15 08:54:11;;;;;;;68.28;27.80;;;;;;;;;;4954073;28;20077;-75
2023/11/15 08:56:40;;;;;;;62.92;24.67;;;;;;;;;;4970291;28;20105;-73
2023/11/15 08:59:12;;;;;;;66.18;25.77;;;;;;;;;;4970977;28;20058;-74
2023/11/15 09:01:38;;;;;;;55.55;21.88;;;;;;;;;;4958051;28;20043;-73
2023/11/15 09:04:05;;;;;;;58.47;24.52;;;;;;;;;;4936265;28;20042;-74
2023/11/15 09:06:34;;;;;;;53.08;23.17;;;;;;;;;;4952266;28;20565;-74
2023/11/15 09:09:03;;;;;;;61.60;25.65;;;;;;;;;;4950484;28;20100;-73
2023/11/15 09:11:30;;;;;;;57.53;23.45;;;;;;;;;;4960682;28;20097;-74
2023/11/15 09:13:58;;;;;;;61.08;26.25;;;;;;;;;;4948863;28;20047;-73
2023/11/15 09:16:24;;;;;;;60.85;25.23;;;;;;;;;;4950285;28;20528;-73
2023/11/15 09:18:52;;;;;;;60.40;23.27;;;;;;;;;;4948321;28;20039;-73
2023/11/15 09:21:18;;;;;;;55.17;23.80;;;;;;;;;;4953617;28;20043;-74
2023/11/15 09:23:45;;;;;;;49.97;22.30;;;;;;;;;;4956405;28;20066;-73
2023/11/15 09:26:19;;;;;;;42.53;22.10;;;;;;;;;;4953264;28;20043;-74
2023/11/15 09:28:45;;;;;;;44.20;22.88;;;;;;;;;;4951112;28;20453;-74
2023/11/15 09:31:14;;;;;;;48.50;21.17;;;;;;;;;;4954053;28;20043;-74
2023/11/15 09:33:40;;;;;;;42.33;20.85;;;;;;;;;;4950780;28;20046;-75
2023/11/15 09:36:07;;;;;;;34.95;19.80;;;;;;;;;;4947926;28;20117;-75
2023/11/15 09:38:34;;;;;;;30.90;18.10;;;;;;;;;;4967517;28;20034;-75
2023/11/15 09:41:01;;;;;;;32.42;19.48;;;;;;;;;;4954043;28;20098;-75
2023/11/15 09:43:28;;;;;;;37.60;18.50;;;;;;;;;;4950016;28;20041;-75
2023/11/15 09:45:54;;;;;;;32.47;18.67;;;;;;;;;;4952884;28;20047;-75
2023/11/15 09:48:20;;;;;;;38.13;19.52;;;;;;;;;;4958354;28;20038;-74
2023/11/15 09:50:48;;;;;;;30.33;17.55;;;;;;;;;;4955495;28;20051;-75
2023/11/15 09:53:16;;;;;;;35.25;20.38;;;;;;;;;;4954587;28;20587;-75
2023/11/15 09:55:42;;;;;;;31.35;19.33;;;;;;;;;;4948680;28;20058;-75
2023/11/15 09:58:08;;;;;;;34.85;18.98;;;;;;;;;;4951970;28;20043;-74
2023/11/15 10:00:34;;;;;;;38.78;19.40;;;;;;;;;;4951576;28;20134;-75
2023/11/15 10:03:00;;;;;;;36.88;20.70;;;;;;;;;;4950763;28;20118;-74
2023/11/15 10:05:27;;;;;;;39.33;21.27;;;;;;;;;;4950517;28;20052;-75
2023/11/15 10:08:15;;;;;;;38.33;20.83;;;;;;;;;;4965900;28;20047;-74
2023/11/15 10:10:43;;;;;;;39.42;20.33;;;;;;;;;;4952975;28;20058;-74
2023/11/15 10:13:13;;;;;;;42.97;21.55;;;;;;;;;;4951292;28;20055;-74
2023/11/15 10:15:40;;;;;;;43.22;24.05;;;;;;;;;;4938281;28;20069;-73
2023/11/15 10:18:11;;;;;;;36.80;20.10;;;;;;;;;;4947616;28;20047;-75
2023/11/15 10:20:38;;;;;;;44.63;26.52;;;;;;;;;;4954372;28;20467;-73
2023/11/15 10:23:04;;;;;;;29.10;16.70;;;;;;;;;;4954656;28;20044;-74
2023/11/15 10:25:31;;;;;;;33.88;20.02;;;;;;;;;;4936917;29;20587;-74
2023/11/15 10:28:07;;;;;;;48.83;23.42;;;;;;;;;;4954626;28;20071;-75
2023/11/15 10:30:33;;;;;;;36.60;21.17;;;;;;;;;;4954096;28;20086;-74
2023/11/15 10:33:10;;;;;;;36.95;21.17;;;;;;;;;;4947519;28;20552;-73
2023/11/15 10:35:39;;;;;;;35.83;20.27;;;;;;;;;;4945304;28;20117;-75
2023/11/15 10:38:14;;;;;;;36.58;21.40;;;;;;;;;;4940415;28;20039;-74
2023/11/15 10:40:41;;;;;;;42.53;24.85;;;;;;;;;;4936827;29;20066;-74
2023/11/15 10:43:07;;;;;;;42.33;22.95;;;;;;;;;;4953985;28;20078;-75
2023/11/15 10:45:34;;;;;;;45.17;23.45;;;;;;;;;;4936664;29;20067;-75
2023/11/15 10:48:03;;;;;;;41.65;23.05;;;;;;;;;;4937057;29;20047;-75
2023/11/15 10:50:33;;;;;;;45.80;24.40;;;;;;;;;;4953846;28;20039;-75
2023/11/15 10:53:00;;;;;;;41.88;22.85;;;;;;;;;;4947205;28;20055;-75
2023/11/15 10:55:30;;;;;;;43.30;23.80;;;;;;;;;;4954781;28;20059;-75
2023/11/15 10:58:00;;;;;;;45.58;24.02;;;;;;;;;;4958735;29;20059;-75
2023/11/15 11:00:29;;;;;;;36.45;19.98;;;;;;;;;;4972249;28;20116;-75
2023/11/15 11:02:56;;;;;;;39.95;21.85;;;;;;;;;;4960386;28;20048;-75
2023/11/15 11:05:29;;;;;;;46.95;23.48;;;;;;;;;;4925024;29;20078;-75
2023/11/15 11:08:14;;;;;;;41.45;22.60;;;;;;;;;;4963338;28;20197;-75
2023/11/15 11:10:45;;;;;;;30.50;17.90;;;;;;;;;;4954592;28;20231;-74
2023/11/15 11:13:11;;;;;;;;;;;;;;;;;;4960555;28;20070;-75
2023/11/15 11:15:38;;;;;;;36.08;20.13;;;;;;;;;;4957294;28;20412;-74
2023/11/15 11:18:11;;;;;;;37.38;21.83;;;;;;;;;;4956893;28;20509;-74
2023/11/15 11:20:40;;;;;;;38.60;20.17;;;;;;;;;;4961182;28;20141;-75
2023/11/15 11:23:07;;;;;;;48.05;25.75;;;;;;;;;;4962114;28;20050;-75
2023/11/15 11:25:34;;;;;;;41.20;23.83;;;;;;;;;;4961386;28;20053;-76
2023/11/15 11:28:01;;;;;;;39.22;21.35;;;;;;;;;;4956446;28;20055;-75
2023/11/15 11:30:28;;;;;;;39.40;20.70;;;;;;;;;;4953117;28;20042;-75
2023/11/15 11:33:10;;;;;;;36.65;21.00;;;;;;;;;;4954248;28;20126;-74
2023/11/15 11:35:40;;;;;;;42.75;23.60;;;;;;;;;;4953116;28;20043;-75
2023/11/15 11:38:06;;;;;;;37.00;21.08;;;;;;;;;;4953870;28;20406;-74
2023/11/15 11:40:33;;;;;;;34.15;20.50;;;;;;;;;;4953387;28;20035;-76
2023/11/15 11:43:21;;;;;;;34.40;17.77;;;;;;;;;;4965835;28;20394;-74
2023/11/15 11:45:50;;;;;;;38.20;21.17;;;;;;;;;;4972183;28;20039;-75
2023/11/15 11:48:16;;;;;;;35.42;21.65;;;;;;;;;;4951511;29;20039;-75
2023/11/15 11:50:55;;;;;;;35.25;21.83;;;;;;;;;;4952784;28;20050;-74
2023/11/15 11:53:21;;;;;;;27.75;17.50;;;;;;;;;;4953318;28;20522;-75
2023/11/15 11:55:53;;;;;;;34.30;17.60;;;;;;;;;;4953994;28;20051;-75
2023/11/15 11:58:19;;;;;;;34.75;18.85;;;;;;;;;;4963114;28;20138;-74
2023/11/15 12:00:48;;;;;;;47.35;25.33;;;;;;;;;;4952331;28;20062;-74
2023/11/15 12:03:15;;;;;;;32.47;19.55;;;;;;;;;;4952482;28;20058;-75
2023/11/15 12:05:43;;;;;;;36.15;21.77;;;;;;;;;;4952253;28;20102;-75
2023/11/15 12:08:09;;;;;;;37.78;19.98;;;;;;;;;;4952605;28;20130;-75
2023/11/15 12:10:35;;;;;;;38.95;24.20;;;;;;;;;;4952517;28;20122;-75
2023/11/15 12:13:04;;;;;;;35.78;21.73;;;;;;;;;;4939466;28;20472;-74
2023/11/15 12:15:30;;;;;;;40.70;24.02;;;;;;;;;;4953000;28;20165;-74
2023/11/15 12:17:57;;;;;;;37.42;20.98;;;;;;;;;;4964325;28;20043;-75
2023/11/15 12:20:26;;;;;;;45.58;23.75;;;;;;;;;;4954264;28;20122;-74
2023/11/15 12:23:12;;;;;;;32.10;19.50;;;;;;;;;;4952863;28;20228;-74
2023/11/15 12:25:48;;;;;;;36.85;21.25;;;;;;;;;;4964105;28;20039;-74
2023/11/15 12:28:25;;;;;;;36.17;21.13;;;;;;;;;;4968333;28;20074;-73
2023/11/15 12:30:52;;;;;;;33.40;19.50;;;;;;;;;;4952975;28;20529;-73
2023/11/15 12:33:19;;;;;;;42.40;22.38;;;;;;;;;;4964916;28;20046;-73
2023/11/15 12:35:45;;;;;;;36.95;20.35;;;;;;;;;;4934032;29;20138;-74
2023/11/15 12:38:13;;;;;;;41.30;22.90;;;;;;;;;;4958528;28;20051;-73
2023/11/15 12:40:39;;;;;;;40.30;23.05;;;;;;;;;;4943453;28;20047;-73
2023/11/15 12:43:32;;;;;;;32.00;19.52;;;;;;;;;;4968729;28;20059;-74
2023/11/15 12:46:03;;;;;;;36.60;20.70;;;;;;;;;;4966202;28;20050;-73
2023/11/15 12:48:29;;;;;;;32.17;18.88;;;;;;;;;;4970117;28;20038;-75
2023/11/15 12:51:01;;;;;;;35.53;20.15;;;;;;;;;;4960129;28;20054;-74
2023/11/15 12:53:30;;;;;;;33.97;20.77;;;;;;;;;;4970056;28;20505;-74
2023/11/15 12:55:56;;;;;;;32.97;21.13;;;;;;;;;;4950549;28;20051;-74
2023/11/15 12:58:29;;;;;;;37.97;21.45;;;;;;;;;;4956071;28;20047;-74
2023/11/15 13:01:07;;;;;;;40.45;22.35;;;;;;;;;;4951782;28;20141;-74
2023/11/15 13:03:34;;;;;;;35.78;22.25;;;;;;;;;;4969451;28;20046;-74
2023/11/15 13:06:08;;;;;;;39.35;23.83;;;;;;;;;;4952517;28;20584;-74
2023/11/15 13:08:34;;;;;;;40.67;23.17;;;;;;;;;;4950229;28;20051;-74
2023/11/15 13:11:00;;;;;;;38.22;21.52;;;;;;;;;;4968719;28;20046;-74
2023/11/15 13:13:27;;;;;;;39.53;22.27;;;;;;;;;;4968788;28;20104;-74
2023/11/15 13:15:53;;;;;;;52.97;28.75;;;;;;;;;;4958169;28;20062;-74
2023/11/15 13:18:19;;;;;;;38.25;23.10;;;;;;;;;;4949898;28;20406;-74
2023/11/15 13:20:48;;;;;;;35.83;21.75;;;;;;;;;;4963617;28;20039;-74
2023/11/15 13:23:14;;;;;;;41.33;21.05;;;;;;;;;;4945204;28;20142;-75
2023/11/15 13:25:41;;;;;;;42.15;23.30;;;;;;;;;;4969159;28;20050;-75
2023/11/15 13:28:09;;;;;;;42.25;23.55;;;;;;;;;;4969694;28;20570;-74
2023/11/15 13:30:37;;;;;;;46.40;24.33;;;;;;;;;;4968561;28;20090;-74
2023/11/15 13:33:03;;;;;;;46.70;24.00;;;;;;;;;;4969633;28;20109;-74
2023/11/15 13:35:29;;;;;;;43.13;21.65;;;;;;;;;;4969062;28;20062;-75
2023/11/15 13:37:56;;;;;;;41.85;19.83;;;;;;;;;;4935576;28;20401;-74
2023/11/15 13:40:22;;;;;;;39.15;21.08;;;;;;;;;;4954526;28;20054;-74
2023/11/15 13:42:49;;;;;;;40.88;19.80;;;;;;;;;;4968915;28;20041;-73
2023/11/15 13:45:16;;;;;;;44.97;22.23;;;;;;;;;;4950291;29;20452;-73
2023/11/15 13:47:43;;;;;;;42.80;23.75;;;;;;;;;;4961825;28;20245;-73
2023/11/15 13:50:10;;;;;;;44.92;21.92;;;;;;;;;;4982393;28;20051;-74
2023/11/15 13:52:38;;;;;;;38.38;20.50;;;;;;;;;;4975144;28;20058;-74
2023/11/15 13:55:04;;;;;;;44.25;21.48;;;;;;;;;;4955255;28;20467;-74
2023/11/15 13:57:31;;;;;;;29.77;16.75;;;;;;;;;;4974673;28;20047;-74
2023/11/15 13:59:57;;;;;;;41.13;19.65;;;;;;;;;;4949727;28;20043;-74
2023/11/15 14:02:24;;;;;;;40.97;22.25;;;;;;;;;;4971569;28;20046;-73
2023/11/15 14:04:51;;;;;;;37.67;20.05;;;;;;;;;;4967671;28;20053;-74
2023/11/15 14:07:17;;;;;;;38.10;20.50;;;;;;;;;;4970877;28;20118;-73
2023/11/15 14:09:43;;;;;;;69.28;27.48;;;;;;;;;;4952416;28;20126;-74
2023/11/15 14:12:10;;;;;;;55.65;24.88;;;;;;;;;;4973978;28;20046;-74
2023/11/15 14:14:38;;;;;;;47.38;20.88;;;;;;;;;;4973757;28;20064;-73
2023/11/15 14:17:07;;;;;;;43.17;21.80;;;;;;;;;;4955142;28;20054;-72
2023/11/15 14:19:33;;;;;;;52.42;22.95;;;;;;;;;;4955048;28;20122;-72